sensor_id;sensor_type;location;lat;lon;timestamp;temperature;humidity
22081;DHT22;11207;59.512;18.050;2023-03-14T00:01:23;4.50;99.90
22081;DHT22;11207;59.512;18.050;2023-03-14T00:03:49;4.60;99.90
22081;DHT22;11207;59.512;18.050;2023-03-14T00:06:15;4.50;99.90
22081;DHT22;11207;59.512;18.050;2023-03-14T00:08:42;4.50;99.90
22081;DHT22;11207;59.512;18.050;2023-03-14T00:11:11;4.50;99.90
22081;DHT22;11207;59.512;18.050;2023-03-14T00:13:37;4.40;99.90
22081;DHT22;11207;59.512;18.050;2023-03-14T00:16:11;4.40;99.90
22081;DHT22;11207;59.512;18.050;2023-03-14T00:18:38;4.40;99.90
22081;DHT22;11207;59.512;18.050;2023-03-14T00:21:05;4.40;99.90
22081;DHT22;11207;59.512;18.050;2023-03-14T00:23:33;4.50;99.90
22081;DHT22;11207;59.512;18.050;2023-03-14T00:26:00;4.50;99.90
22081;DHT22;11207;59.512;18.050;2023-03-14T00:28:27;4.40;99.90
22081;DHT22;11207;59.512;18.050;2023-03-14T00:30:53;4.50;99.90
22081;DHT22;11207;59.512;18.050;2023-03-14T00:33:18;4.40;99.90
22081;DHT22;11207;59.512;18.050;2023-03-14T00:35:59;4.50;99.90
22081;DHT22;11207;59.512;18.050;2023-03-14T00:38:25;4.50;99.90
22081;DHT22;11207;59.512;18.050;2023-03-14T00:40:51;4.50;99.90
22081;DHT22;11207;59.512;18.050;2023-03-14T00:43:18;4.50;99.90
22081;DHT22;11207;59.512;18.050;2023-03-14T00:45:43;4.60;99.90
22081;DHT22;11207;59.512;18.050;2023-03-14T00:48:09;4.50;99.90
22081;DHT22;11207;59.512;18.050;2023-03-14T00:50:35;4.60;99.90
22081;DHT22;11207;59.512;18.050;2023-03-14T00:53:01;4.60;99.90
22081;DHT22;11207;59.512;18.050;2023-03-14T00:55:26;4.50;99.90
22081;DHT22;11207;59.512;18.050;2023-03-14T00:57:52;4.50;99.90
22081;DHT22;11207;59.512;18.050;2023-03-14T01:00:18;4.60;99.90
22081;DHT22;11207;59.512;18.050;2023-03-14T01:02:44;4.50;99.90
22081;DHT22;11207;59.512;18.050;2023-03-14T01:05:09;4.60;99.90
22081;DHT22;11207;59.512;18.050;2023-03-14T01:07:37;4.60;99.90
22081;DHT22;11207;59.512;18.050;2023-03-14T01:10:04;4.70;99.90
22081;DHT22;11207;59.512;18.050;2023-03-14T01:12:30;4.60;99.90
22081;DHT22;11207;59.512;18.050;2023-03-14T01:14:56;4.70;99.90
22081;DHT22;11207;59.512;18.050;2023-03-14T01:17:21;4.70;99.90
22081;DHT22;11207;59.512;18.050;2023-03-14T01:19:47;4.60;99.90
22081;DHT22;11207;59.512;18.050;2023-03-14T01:22:13;4.70;99.90
22081;DHT22;11207;59.512;18.050;2023-03-14T01:24:39;4.60;99.90
22081;DHT22;11207;59.512;18.050;2023-03-14T01:27:04;4.70;99.90
22081;DHT22;11207;59.512;18.050;2023-03-14T01:29:30;4.70;99.90
22081;DHT22;11207;59.512;18.050;2023-03-14T01:31:55;4.60;99.90
22081;DHT22;11207;59.512;18.050;2023-03-14T01:34:21;4.60;99.90
22081;DHT22;11207;59.512;18.050;2023-03-14T01:36:46;4.60;99.90
22081;DHT22;11207;59.512;18.050;2023-03-14T01:39:12;4.60;99.90
22081;DHT22;11207;59.512;18.050;2023-03-14T01:41:39;4.60;99.90
22081;DHT22;11207;59.512;18.050;2023-03-14T01:44:05;4.60;99.90
22081;DHT22;11207;59.512;18.050;2023-03-14T01:46:42;4.60;99.90
22081;DHT22;11207;59.512;18.050;2023-03-14T01:49:37;4.70;99.90
22081;DHT22;11207;59.512;18.050;2023-03-14T01:52:12;4.70;99.90
22081;DHT22;11207;59.512;18.050;2023-03-14T01:54:43;4.70;99.90
22081;DHT22;11207;59.512;18.050;2023-03-14T01:57:17;4.70;99.90
22081;DHT22;11207;59.512;18.050;2023-03-14T02:00:11;4.70;99.90
22081;DHT22;11207;59.512;18.050;2023-03-14T02:02:46;4.70;99.90
22081;DHT22;11207;59.512;18.050;2023-03-14T02:05:17;4.70;99.90
22081;DHT22;11207;59.512;18.050;2023-03-14T02:07:52;4.70;99.90
22081;DHT22;11207;59.512;18.050;2023-03-14T02:10:20;4.70;99.90
22081;DHT22;11207;59.512;18.050;2023-03-14T02:12:50;4.70;99.90
22081;DHT22;11207;59.512;18.050;2023-03-14T02:15:17;4.70;99.90
22081;DHT22;11207;59.512;18.050;2023-03-14T02:17:44;4.70;99.90
22081;DHT22;11207;59.512;18.050;2023-03-14T02:20:39;4.70;99.90
22081;DHT22;11207;59.512;18.050;2023-03-14T02:23:08;4.70;99.90
22081;DHT22;11207;59.512;18.050;2023-03-14T02:28:00;4.70;99.90
22081;DHT22;11207;59.512;18.050;2023-03-14T02:30:28;4.70;99.90
22081;DHT22;11207;59.512;18.050;2023-03-14T02:32:58;4.60;99.90
22081;DHT22;11207;59.512;18.050;2023-03-14T02:35:27;4.70;99.90
22081;DHT22;11207;59.512;18.050;2023-03-14T02:40:34;4.80;99.90
22081;DHT22;11207;59.512;18.050;2023-03-14T02:43:00;4.80;99.90
22081;DHT22;11207;59.512;18.050;2023-03-14T02:45:33;4.90;99.90
22081;DHT22;11207;59.512;18.050;2023-03-14T02:48:04;4.80;99.90
22081;DHT22;11207;59.512;18.050;2023-03-14T02:50:33;4.80;99.90
22081;DHT22;11207;59.512;18.050;2023-03-14T02:52:59;4.90;99.90
22081;DHT22;11207;59.512;18.050;2023-03-14T02:55:25;4.80;99.90
22081;DHT22;11207;59.512;18.050;2023-03-14T02:57:52;4.80;99.90
22081;DHT22;11207;59.512;18.050;2023-03-14T03:00:18;4.90;99.90
22081;DHT22;11207;59.512;18.050;2023-03-14T03:02:45;4.80;99.90
22081;DHT22;11207;59.512;18.050;2023-03-14T03:05:10;4.90;99.90
22081;DHT22;11207;59.512;18.050;2023-03-14T03:07:36;5.00;99.90
22081;DHT22;11207;59.512;18.050;2023-03-14T03:10:01;5.00;99.90
22081;DHT22;11207;59.512;18.050;2023-03-14T03:12:27;4.90;99.90
22081;DHT22;11207;59.512;18.050;2023-03-14T03:14:53;4.90;99.90
22081;DHT22;11207;59.512;18.050;2023-03-14T03:17:18;5.00;99.90
22081;DHT22;11207;59.512;18.050;2023-03-14T03:19:44;5.00;99.90
22081;DHT22;11207;59.512;18.050;2023-03-14T03:22:10;5.00;99.90
22081;DHT22;11207;59.512;18.050;2023-03-14T03:24:35;5.00;99.90
22081;DHT22;11207;59.512;18.050;2023-03-14T03:27:01;5.00;99.90
22081;DHT22;11207;59.512;18.050;2023-03-14T03:29:26;5.10;99.90
22081;DHT22;11207;59.512;18.050;2023-03-14T03:31:53;5.00;99.90
22081;DHT22;11207;59.512;18.050;2023-03-14T03:34:19;5.00;99.90
22081;DHT22;11207;59.512;18.050;2023-03-14T03:36:45;5.10;99.90
22081;DHT22;11207;59.512;18.050;2023-03-14T03:39:10;5.10;99.90
22081;DHT22;11207;59.512;18.050;2023-03-14T03:41:36;5.00;99.90
22081;DHT22;11207;59.512;18.050;2023-03-14T03:44:02;5.10;99.90
22081;DHT22;11207;59.512;18.050;2023-03-14T03:46:27;5.00;99.90
22081;DHT22;11207;59.512;18.050;2023-03-14T03:48:57;5.00;99.90
22081;DHT22;11207;59.512;18.050;2023-03-14T03:51:23;5.00;99.90
22081;DHT22;11207;59.512;18.050;2023-03-14T03:53:49;5.00;99.90
22081;DHT22;11207;59.512;18.050;2023-03-14T03:56:15;5.10;99.90
22081;DHT22;11207;59.512;18.050;2023-03-14T03:58:40;5.10;99.90
22081;DHT22;11207;59.512;18.050;2023-03-14T04:01:08;5.10;99.90
22081;DHT22;11207;59.512;18.050;2023-03-14T04:03:34;5.10;99.90
22081;DHT22;11207;59.512;18.050;2023-03-14T04:06:04;5.10;99.90
22081;DHT22;11207;59.512;18.050;2023-03-14T04:08:30;5.10;99.90
22081;DHT22;11207;59.512;18.050;2023-03-14T04:10:57;5.10;99.90
22081;DHT22;11207;59.512;18.050;2023-03-14T04:13:24;5.10;99.90
22081;DHT22;11207;59.512;18.050;2023-03-14T04:15:50;5.00;99.90
22081;DHT22;11207;59.512;18.050;2023-03-14T04:18:16;5.10;99.90
22081;DHT22;11207;59.512;18.050;2023-03-14T04:20:42;5.00;99.90
22081;DHT22;11207;59.512;18.050;2023-03-14T04:23:08;4.90;99.90
22081;DHT22;11207;59.512;18.050;2023-03-14T04:25:33;4.90;99.90
22081;DHT22;11207;59.512;18.050;2023-03-14T04:27:59;5.00;99.90
22081;DHT22;11207;59.512;18.050;2023-03-14T04:30:24;5.00;99.90
22081;DHT22;11207;59.512;18.050;2023-03-14T04:32:50;5.00;99.90
22081;DHT22;11207;59.512;18.050;2023-03-14T04:35:16;5.10;99.90
22081;DHT22;11207;59.512;18.050;2023-03-14T04:37:41;5.00;99.90
22081;DHT22;11207;59.512;18.050;2023-03-14T04:40:09;5.00;99.90
22081;DHT22;11207;59.512;18.050;2023-03-14T04:42:35;4.90;99.90
22081;DHT22;11207;59.512;18.050;2023-03-14T04:45:01;4.90;99.90
22081;DHT22;11207;59.512;18.050;2023-03-14T04:47:27;5.00;99.90
22081;DHT22;11207;59.512;18.050;2023-03-14T04:49:52;5.00;99.90
22081;DHT22;11207;59.512;18.050;2023-03-14T04:52:18;5.00;99.90
22081;DHT22;11207;59.512;18.050;2023-03-14T04:54:43;5.00;99.90
22081;DHT22;11207;59.512;18.050;2023-03-14T04:57:09;5.00;99.90
22081;DHT22;11207;59.512;18.050;2023-03-14T04:59:34;5.00;99.90
22081;DHT22;11207;59.512;18.050;2023-03-14T05:02:00;5.00;99.90
22081;DHT22;11207;59.512;18.050;2023-03-14T05:04:25;5.00;99.90
22081;DHT22;11207;59.512;18.050;2023-03-14T05:06:51;5.00;99.90
22081;DHT22;11207;59.512;18.050;2023-03-14T05:09:17;5.00;99.90
22081;DHT22;11207;59.512;18.050;2023-03-14T05:11:43;4.90;99.90
22081;DHT22;11207;59.512;18.050;2023-03-14T05:14:08;4.90;99.90
22081;DHT22;11207;59.512;18.050;2023-03-14T05:16:34;5.00;99.90
22081;DHT22;11207;59.512;18.050;2023-03-14T05:18:59;5.00;99.90
22081;DHT22;11207;59.512;18.050;2023-03-14T05:21:27;4.90;99.90
22081;DHT22;11207;59.512;18.050;2023-03-14T05:23:52;4.90;99.90
22081;DHT22;11207;59.512;18.050;2023-03-14T05:26:18;4.90;99.90
22081;DHT22;11207;59.512;18.050;2023-03-14T05:28:43;4.80;99.90
22081;DHT22;11207;59.512;18.050;2023-03-14T05:31:09;4.90;99.90
22081;DHT22;11207;59.512;18.050;2023-03-14T05:33:35;4.80;99.90
22081;DHT22;11207;59.512;18.050;2023-03-14T05:36:00;4.80;99.90
22081;DHT22;11207;59.512;18.050;2023-03-14T05:38:26;4.80;99.90
22081;DHT22;11207;59.512;18.050;2023-03-14T05:40:51;4.80;99.90
22081;DHT22;11207;59.512;18.050;2023-03-14T05:43:17;4.80;99.90
22081;DHT22;11207;59.512;18.050;2023-03-14T05:45:43;4.70;99.90
22081;DHT22;11207;59.512;18.050;2023-03-14T05:48:08;4.70;99.90
22081;DHT22;11207;59.512;18.050;2023-03-14T05:50:34;4.60;99.90
22081;DHT22;11207;59.512;18.050;2023-03-14T05:53:00;4.50;99.90
22081;DHT22;11207;59.512;18.050;2023-03-14T05:55:26;4.50;99.90
22081;DHT22;11207;59.512;18.050;2023-03-14T05:57:53;4.50;99.90
22081;DHT22;11207;59.512;18.050;2023-03-14T06:00:19;4.60;99.90
22081;DHT22;11207;59.512;18.050;2023-03-14T06:02:45;4.60;99.90
22081;DHT22;11207;59.512;18.050;2023-03-14T06:05:11;4.60;99.90
22081;DHT22;11207;59.512;18.050;2023-03-14T06:07:37;4.60;99.90
22081;DHT22;11207;59.512;18.050;2023-03-14T06:10:03;4.60;99.90
22081;DHT22;11207;59.512;18.050;2023-03-14T06:12:29;4.60;99.90
22081;DHT22;11207;59.512;18.050;2023-03-14T06:14:55;4.60;99.90
22081;DHT22;11207;59.512;18.050;2023-03-14T06:17:20;4.60;99.90
22081;DHT22;11207;59.512;18.050;2023-03-14T06:19:46;4.60;99.90
22081;DHT22;11207;59.512;18.050;2023-03-14T06:22:11;4.60;99.90
22081;DHT22;11207;59.512;18.050;2023-03-14T06:24:37;4.70;99.90
22081;DHT22;11207;59.512;18.050;2023-03-14T06:27:02;4.60;99.90
22081;DHT22;11207;59.512;18.050;2023-03-14T06:29:29;4.60;99.90
22081;DHT22;11207;59.512;18.050;2023-03-14T06:31:55;4.60;99.90
22081;DHT22;11207;59.512;18.050;2023-03-14T06:34:20;4.70;99.90
22081;DHT22;11207;59.512;18.050;2023-03-14T06:36:46;4.70;99.90
22081;DHT22;11207;59.512;18.050;2023-03-14T06:39:12;4.70;99.90
22081;DHT22;11207;59.512;18.050;2023-03-14T06:41:37;4.80;99.90
22081;DHT22;11207;59.512;18.050;2023-03-14T06:44:03;4.90;99.90
22081;DHT22;11207;59.512;18.050;2023-03-14T06:46:29;4.80;99.90
22081;DHT22;11207;59.512;18.050;2023-03-14T06:48:55;4.90;99.90
22081;DHT22;11207;59.512;18.050;2023-03-14T06:51:20;5.00;99.90
22081;DHT22;11207;59.512;18.050;2023-03-14T06:53:46;5.00;99.90
22081;DHT22;11207;59.512;18.050;2023-03-14T06:56:11;4.90;99.90
22081;DHT22;11207;59.512;18.050;2023-03-14T06:58:37;4.80;99.90
22081;DHT22;11207;59.512;18.050;2023-03-14T07:01:03;5.00;99.90
22081;DHT22;11207;59.512;18.050;2023-03-14T07:03:28;4.90;99.90
22081;DHT22;11207;59.512;18.050;2023-03-14T07:05:54;4.90;99.90
22081;DHT22;11207;59.512;18.050;2023-03-14T07:08:20;5.00;99.90
22081;DHT22;11207;59.512;18.050;2023-03-14T07:10:45;5.00;99.90
22081;DHT22;11207;59.512;18.050;2023-03-14T07:13:11;5.00;99.90
22081;DHT22;11207;59.512;18.050;2023-03-14T07:15:37;5.00;99.90
22081;DHT22;11207;59.512;18.050;2023-03-14T07:18:02;5.00;99.90
22081;DHT22;11207;59.512;18.050;2023-03-14T07:20:28;5.10;99.90
22081;DHT22;11207;59.512;18.050;2023-03-14T07:22:54;5.00;99.90
22081;DHT22;11207;59.512;18.050;2023-03-14T07:25:20;4.90;99.90
22081;DHT22;11207;59.512;18.050;2023-03-14T07:27:46;4.80;99.90
22081;DHT22;11207;59.512;18.050;2023-03-14T07:30:13;4.90;99.90
22081;DHT22;11207;59.512;18.050;2023-03-14T07:32:39;4.80;99.90
22081;DHT22;11207;59.512;18.050;2023-03-14T07:35:05;4.70;99.90
22081;DHT22;11207;59.512;18.050;2023-03-14T07:37:31;4.70;99.90
22081;DHT22;11207;59.512;18.050;2023-03-14T07:39:56;4.80;99.90
22081;DHT22;11207;59.512;18.050;2023-03-14T07:42:22;4.80;99.90
22081;DHT22;11207;59.512;18.050;2023-03-14T07:44:48;4.70;99.90
22081;DHT22;11207;59.512;18.050;2023-03-14T07:47:13;4.80;99.90
22081;DHT22;11207;59.512;18.050;2023-03-14T07:49:39;4.80;99.90
22081;DHT22;11207;59.512;18.050;2023-03-14T07:52:04;4.80;99.90
22081;DHT22;11207;59.512;18.050;2023-03-14T07:54:30;4.80;99.90
22081;DHT22;11207;59.512;18.050;2023-03-14T07:56:55;4.80;99.90
22081;DHT22;11207;59.512;18.050;2023-03-14T07:59:21;4.90;99.90
22081;DHT22;11207;59.512;18.050;2023-03-14T08:01:47;5.00;99.90
22081;DHT22;11207;59.512;18.050;2023-03-14T08:04:12;5.10;99.90
22081;DHT22;11207;59.512;18.050;2023-03-14T08:06:38;5.10;99.90
22081;DHT22;11207;59.512;18.050;2023-03-14T08:09:04;5.10;99.90
22081;DHT22;11207;59.512;18.050;2023-03-14T08:11:30;5.10;99.90
22081;DHT22;11207;59.512;18.050;2023-03-14T08:13:55;5.10;99.90
22081;DHT22;11207;59.512;18.050;2023-03-14T08:16:21;5.00;99.90
22081;DHT22;11207;59.512;18.050;2023-03-14T08:18:47;5.00;99.90
22081;DHT22;11207;59.512;18.050;2023-03-14T08:21:13;5.10;99.90
22081;DHT22;11207;59.512;18.050;2023-03-14T08:23:39;5.20;99.90
22081;DHT22;11207;59.512;18.050;2023-03-14T08:26:05;5.20;99.90
22081;DHT22;11207;59.512;18.050;2023-03-14T08:28:31;5.20;99.90
22081;DHT22;11207;59.512;18.050;2023-03-14T08:30:59;5.20;99.90
22081;DHT22;11207;59.512;18.050;2023-03-14T08:33:26;5.10;99.90
22081;DHT22;11207;59.512;18.050;2023-03-14T08:35:53;5.10;99.90
22081;DHT22;11207;59.512;18.050;2023-03-14T08:38:19;5.20;99.90
22081;DHT22;11207;59.512;18.050;2023-03-14T08:40:44;5.20;99.90
22081;DHT22;11207;59.512;18.050;2023-03-14T08:43:10;5.30;99.90
22081;DHT22;11207;59.512;18.050;2023-03-14T08:45:35;5.40;99.90
22081;DHT22;11207;59.512;18.050;2023-03-14T08:48:01;5.40;99.90
22081;DHT22;11207;59.512;18.050;2023-03-14T08:50:26;5.40;99.90
22081;DHT22;11207;59.512;18.050;2023-03-14T08:52:52;5.50;99.90
22081;DHT22;11207;59.512;18.050;2023-03-14T08:55:18;5.50;99.90
22081;DHT22;11207;59.512;18.050;2023-03-14T08:57:43;5.50;99.90
22081;DHT22;11207;59.512;18.050;2023-03-14T09:00:10;5.50;99.90
22081;DHT22;11207;59.512;18.050;2023-03-14T09:02:41;5.40;99.90
22081;DHT22;11207;59.512;18.050;2023-03-14T09:05:07;5.40;99.90
22081;DHT22;11207;59.512;18.050;2023-03-14T09:07:33;5.40;99.90
22081;DHT22;11207;59.512;18.050;2023-03-14T09:09:59;5.30;99.90
22081;DHT22;11207;59.512;18.050;2023-03-14T09:12:24;5.20;99.90
22081;DHT22;11207;59.512;18.050;2023-03-14T09:14:50;5.30;99.90
22081;DHT22;11207;59.512;18.050;2023-03-14T09:17:15;5.10;99.90
22081;DHT22;11207;59.512;18.050;2023-03-14T09:19:41;5.20;99.90
22081;DHT22;11207;59.512;18.050;2023-03-14T09:22:07;5.10;99.90
22081;DHT22;11207;59.512;18.050;2023-03-14T09:24:32;5.30;99.90
22081;DHT22;11207;59.512;18.050;2023-03-14T09:26:58;5.30;99.90
22081;DHT22;11207;59.512;18.050;2023-03-14T09:29:23;5.20;99.90
22081;DHT22;11207;59.512;18.050;2023-03-14T09:31:50;5.20;99.90
22081;DHT22;11207;59.512;18.050;2023-03-14T09:34:15;5.30;99.90
22081;DHT22;11207;59.512;18.050;2023-03-14T09:36:41;5.30;99.90
22081;DHT22;11207;59.512;18.050;2023-03-14T09:39:10;5.40;99.90
22081;DHT22;11207;59.512;18.050;2023-03-14T09:41:38;5.50;99.90
22081;DHT22;11207;59.512;18.050;2023-03-14T09:46:52;5.40;99.90
22081;DHT22;11207;59.512;18.050;2023-03-14T09:49:33;5.40;99.90
22081;DHT22;11207;59.512;18.050;2023-03-14T09:52:14;5.50;99.90
22081;DHT22;11207;59.512;18.050;2023-03-14T09:57:18;5.40;99.90
22081;DHT22;11207;59.512;18.050;2023-03-14T09:59:46;5.50;99.90
22081;DHT22;11207;59.512;18.050;2023-03-14T10:02:22;5.50;99.90
22081;DHT22;11207;59.512;18.050;2023-03-14T10:04:51;5.60;99.90
22081;DHT22;11207;59.512;18.050;2023-03-14T10:07:21;5.60;99.90
22081;DHT22;11207;59.512;18.050;2023-03-14T10:09:49;5.70;99.90
22081;DHT22;11207;59.512;18.050;2023-03-14T10:12:16;5.60;99.90
22081;DHT22;11207;59.512;18.050;2023-03-14T10:14:51;5.60;99.90
22081;DHT22;11207;59.512;18.050;2023-03-14T10:17:20;5.70;99.90
22081;DHT22;11207;59.512;18.050;2023-03-14T10:19:59;5.70;99.90
22081;DHT22;11207;59.512;18.050;2023-03-14T10:22:29;5.70;99.90
22081;DHT22;11207;59.512;18.050;2023-03-14T10:24:57;5.80;99.90
22081;DHT22;11207;59.512;18.050;2023-03-14T10:27:33;5.80;99.90
22081;DHT22;11207;59.512;18.050;2023-03-14T10:30:05;5.70;99.90
22081;DHT22;11207;59.512;18.050;2023-03-14T10:32:37;5.90;99.90
22081;DHT22;11207;59.512;18.050;2023-03-14T10:35:23;5.80;99.90
22081;DHT22;11207;59.512;18.050;2023-03-14T10:37:58;5.80;99.90
22081;DHT22;11207;59.512;18.050;2023-03-14T10:40:38;5.80;99.90
22081;DHT22;11207;59.512;18.050;2023-03-14T10:43:06;5.80;99.90
22081;DHT22;11207;59.512;18.050;2023-03-14T10:45:40;5.80;99.90
22081;DHT22;11207;59.512;18.050;2023-03-14T10:51:17;5.90;99.90
22081;DHT22;11207;59.512;18.050;2023-03-14T10:53:55;5.90;99.90
22081;DHT22;11207;59.512;18.050;2023-03-14T10:56:23;6.00;99.90
22081;DHT22;11207;59.512;18.050;2023-03-14T10:58:51;5.90;99.90
22081;DHT22;11207;59.512;18.050;2023-03-14T11:09:38;6.00;99.90
22081;DHT22;11207;59.512;18.050;2023-03-14T11:12:36;6.10;99.90
22081;DHT22;11207;59.512;18.050;2023-03-14T11:15:19;6.10;99.90
22081;DHT22;11207;59.512;18.050;2023-03-14T11:22:59;6.30;99.90
22081;DHT22;11207;59.512;18.050;2023-03-14T11:25:32;6.30;99.90
22081;DHT22;11207;59.512;18.050;2023-03-14T11:28:23;6.40;99.90
22081;DHT22;11207;59.512;18.050;2023-03-14T11:30:54;6.40;99.90
22081;DHT22;11207;59.512;18.050;2023-03-14T11:36:39;6.30;99.90
22081;DHT22;11207;59.512;18.050;2023-03-14T11:39:17;6.40;99.90
22081;DHT22;11207;59.512;18.050;2023-03-14T11:41:49;6.40;99.90
22081;DHT22;11207;59.512;18.050;2023-03-14T11:44:30;6.30;99.90
22081;DHT22;11207;59.512;18.050;2023-03-14T11:47:20;6.20;99.90
22081;DHT22;11207;59.512;18.050;2023-03-14T11:49:56;6.20;99.90
22081;DHT22;11207;59.512;18.050;2023-03-14T11:55:00;6.10;99.90
22081;DHT22;11207;59.512;18.050;2023-03-14T11:57:30;6.00;99.90
22081;DHT22;11207;59.512;18.050;2023-03-14T12:00:12;5.90;99.90
22081;DHT22;11207;59.512;18.050;2023-03-14T12:13:50;5.60;99.90
22081;DHT22;11207;59.512;18.050;2023-03-14T12:16:31;5.50;99.90
22081;DHT22;11207;59.512;18.050;2023-03-14T12:18:57;5.50;99.90
22081;DHT22;11207;59.512;18.050;2023-03-14T12:24:20;5.40;99.90
22081;DHT22;11207;59.512;18.050;2023-03-14T12:27:00;5.40;99.90
22081;DHT22;11207;59.512;18.050;2023-03-14T12:29:26;5.30;99.90
22081;DHT22;11207;59.512;18.050;2023-03-14T12:34:34;5.30;99.90
22081;DHT22;11207;59.512;18.050;2023-03-14T12:37:18;5.20;99.90
22081;DHT22;11207;59.512;18.050;2023-03-14T12:42:59;5.20;99.90
22081;DHT22;11207;59.512;18.050;2023-03-14T12:45:30;5.20;99.90
22081;DHT22;11207;59.512;18.050;2023-03-14T12:48:10;5.20;99.90
22081;DHT22;11207;59.512;18.050;2023-03-14T12:51:02;5.20;99.90
22081;DHT22;11207;59.512;18.050;2023-03-14T12:56:14;5.30;99.90
22081;DHT22;11207;59.512;18.050;2023-03-14T13:01:33;5.20;99.90
22081;DHT22;11207;59.512;18.050;2023-03-14T13:04:08;5.10;99.90
22081;DHT22;11207;59.512;18.050;2023-03-14T13:06:54;5.00;99.90
22081;DHT22;11207;59.512;18.050;2023-03-14T13:11:55;5.00;99.90
22081;DHT22;11207;59.512;18.050;2023-03-14T13:14:23;5.00;99.90
22081;DHT22;11207;59.512;18.050;2023-03-14T13:16:49;5.00;99.90
22081;DHT22;11207;59.512;18.050;2023-03-14T13:19:21;5.00;99.90
22081;DHT22;11207;59.512;18.050;2023-03-14T13:21:50;5.00;99.90
22081;DHT22;11207;59.512;18.050;2023-03-14T13:24:27;5.00;99.90
22081;DHT22;11207;59.512;18.050;2023-03-14T13:26:56;4.90;99.90
22081;DHT22;11207;59.512;18.050;2023-03-14T13:29:29;4.90;99.90
22081;DHT22;11207;59.512;18.050;2023-03-14T13:32:01;4.90;99.90
22081;DHT22;11207;59.512;18.050;2023-03-14T13:34:34;4.80;99.90
22081;DHT22;11207;59.512;18.050;2023-03-14T13:37:00;4.80;99.90
22081;DHT22;11207;59.512;18.050;2023-03-14T13:39:28;4.70;99.90
22081;DHT22;11207;59.512;18.050;2023-03-14T13:41:58;4.70;99.90
22081;DHT22;11207;59.512;18.050;2023-03-14T13:46:52;4.60;99.90
22081;DHT22;11207;59.512;18.050;2023-03-14T13:49:24;4.60;99.90
22081;DHT22;11207;59.512;18.050;2023-03-14T13:51:50;4.60;99.90
22081;DHT22;11207;59.512;18.050;2023-03-14T13:54:18;4.50;99.90
22081;DHT22;11207;59.512;18.050;2023-03-14T13:56:45;4.50;99.90
22081;DHT22;11207;59.512;18.050;2023-03-14T13:59:25;4.40;99.90
22081;DHT22;11207;59.512;18.050;2023-03-14T14:01:52;4.40;99.90
22081;DHT22;11207;59.512;18.050;2023-03-14T14:04:20;4.40;99.90
22081;DHT22;11207;59.512;18.050;2023-03-14T14:06:54;4.40;99.90
22081;DHT22;11207;59.512;18.050;2023-03-14T14:09:24;4.30;99.90
22081;DHT22;11207;59.512;18.050;2023-03-14T14:11:53;4.30;99.90
22081;DHT22;11207;59.512;18.050;2023-03-14T14:14:31;4.30;99.90
22081;DHT22;11207;59.512;18.050;2023-03-14T14:16:59;4.20;99.90
22081;DHT22;11207;59.512;18.050;2023-03-14T14:19:28;4.20;99.90
22081;DHT22;11207;59.512;18.050;2023-03-14T14:21:55;4.10;99.90
22081;DHT22;11207;59.512;18.050;2023-03-14T14:24:24;4.10;99.90
22081;DHT22;11207;59.512;18.050;2023-03-14T14:26:53;4.00;99.90
22081;DHT22;11207;59.512;18.050;2023-03-14T14:29:32;4.00;99.90
22081;DHT22;11207;59.512;18.050;2023-03-14T14:34:55;4.00;99.90
22081;DHT22;11207;59.512;18.050;2023-03-14T14:37:22;4.10;99.90
22081;DHT22;11207;59.512;18.050;2023-03-14T14:39:50;4.00;99.90
22081;DHT22;11207;59.512;18.050;2023-03-14T14:42:19;4.00;99.90
22081;DHT22;11207;59.512;18.050;2023-03-14T14:44:47;3.90;99.90
22081;DHT22;11207;59.512;18.050;2023-03-14T14:47:19;3.90;99.90
22081;DHT22;11207;59.512;18.050;2023-03-14T14:49:47;3.90;99.90
22081;DHT22;11207;59.512;18.050;2023-03-14T14:54:46;3.80;99.90
22081;DHT22;11207;59.512;18.050;2023-03-14T14:57:20;3.60;99.90
22081;DHT22;11207;59.512;18.050;2023-03-14T14:59:48;3.60;99.90
22081;DHT22;11207;59.512;18.050;2023-03-14T15:05:28;3.50;99.90
22081;DHT22;11207;59.512;18.050;2023-03-14T15:07:56;3.60;99.90
22081;DHT22;11207;59.512;18.050;2023-03-14T15:10:24;3.50;99.90
22081;DHT22;11207;59.512;18.050;2023-03-14T15:12:50;3.40;99.90
22081;DHT22;11207;59.512;18.050;2023-03-14T15:15:17;3.40;99.90
22081;DHT22;11207;59.512;18.050;2023-03-14T15:17:43;3.40;99.90
22081;DHT22;11207;59.512;18.050;2023-03-14T15:20:16;3.40;99.90
22081;DHT22;11207;59.512;18.050;2023-03-14T15:22:42;3.30;99.90
22081;DHT22;11207;59.512;18.050;2023-03-14T15:25:09;3.20;99.90
22081;DHT22;11207;59.512;18.050;2023-03-14T15:27:35;3.20;99.90
22081;DHT22;11207;59.512;18.050;2023-03-14T15:30:01;3.20;99.90
22081;DHT22;11207;59.512;18.050;2023-03-14T15:32:27;3.20;99.90
22081;DHT22;11207;59.512;18.050;2023-03-14T15:34:55;3.10;99.90
22081;DHT22;11207;59.512;18.050;2023-03-14T15:37:21;3.10;99.90
22081;DHT22;11207;59.512;18.050;2023-03-14T15:39:47;3.10;99.90
22081;DHT22;11207;59.512;18.050;2023-03-14T15:42:13;3.00;99.90
22081;DHT22;11207;59.512;18.050;2023-03-14T15:44:38;2.80;99.90
22081;DHT22;11207;59.512;18.050;2023-03-14T15:47:05;3.00;99.90
22081;DHT22;11207;59.512;18.050;2023-03-14T15:49:31;2.90;99.90
22081;DHT22;11207;59.512;18.050;2023-03-14T15:51:57;2.90;99.90
22081;DHT22;11207;59.512;18.050;2023-03-14T15:54:23;2.80;99.90
22081;DHT22;11207;59.512;18.050;2023-03-14T15:56:54;2.80;99.90
22081;DHT22;11207;59.512;18.050;2023-03-14T15:59:19;2.80;99.90
22081;DHT22;11207;59.512;18.050;2023-03-14T16:01:45;2.80;99.90
22081;DHT22;11207;59.512;18.050;2023-03-14T16:04:15;2.80;99.90
22081;DHT22;11207;59.512;18.050;2023-03-14T16:06:43;2.80;99.90
22081;DHT22;11207;59.512;18.050;2023-03-14T16:09:10;2.80;99.90
22081;DHT22;11207;59.512;18.050;2023-03-14T16:11:36;2.80;99.90
22081;DHT22;11207;59.512;18.050;2023-03-14T16:14:02;2.80;99.90
22081;DHT22;11207;59.512;18.050;2023-03-14T16:16:28;2.70;99.90
22081;DHT22;11207;59.512;18.050;2023-03-14T16:18:53;2.70;99.90
22081;DHT22;11207;59.512;18.050;2023-03-14T16:21:20;2.70;99.90
22081;DHT22;11207;59.512;18.050;2023-03-14T16:23:46;2.60;99.90
22081;DHT22;11207;59.512;18.050;2023-03-14T16:26:14;2.60;99.90
22081;DHT22;11207;59.512;18.050;2023-03-14T16:28:41;2.50;99.90
22081;DHT22;11207;59.512;18.050;2023-03-14T16:31:10;2.60;99.90
22081;DHT22;11207;59.512;18.050;2023-03-14T16:33:37;2.50;99.90
22081;DHT22;11207;59.512;18.050;2023-03-14T16:36:04;2.40;99.90
22081;DHT22;11207;59.512;18.050;2023-03-14T16:38:33;2.40;99.90
22081;DHT22;11207;59.512;18.050;2023-03-14T16:41:04;2.20;99.90
22081;DHT22;11207;59.512;18.050;2023-03-14T16:43:31;2.30;99.90
22081;DHT22;11207;59.512;18.050;2023-03-14T16:45:59;2.20;99.90
22081;DHT22;11207;59.512;18.050;2023-03-14T16:48:26;2.20;99.90